ADDS METAR Data INFO
IDs: Format: Raw Decoded Include TAF

Data at: 0024 UTC 17 Dec 2017

KCFS 170015Z AUTO 09005KT 10SM OVC014 M04/M07 A3014 RMK AO2 T10451068
KCFS 162355Z AUTO 07007KT 10SM OVC014 M04/M07 A3013 RMK AO2 T10451068 11038 21046
KCFS 162335Z AUTO 08006KT 10SM OVC016 M04/M07 A3012 RMK AO2 T10421067
KCFS 162315Z AUTO 06004KT 10SM OVC016 M04/M07 A3012 RMK AO2 T10411067
KCFS 162255Z AUTO 06004KT 10SM OVC016 M04/M07 A3011 RMK AO2 T10411067
KCFS 162235Z AUTO 06004KT 10SM OVC016 M04/M06 A3010 RMK AO2 T10401065
KCFS 162215Z AUTO 08003KT 10SM OVC018 M04/M06 A3010 RMK AO2 T10381062
KCFS 162155Z AUTO 00000KT 10SM OVC018 M04/M06 A3009 RMK AO2 T10421062
KCFS 162135Z AUTO 02003KT 10SM OVC018 M04/M06 A3007 RMK AO2 T10411061
KCFS 162115Z AUTO 01004KT 10SM OVC018 M04/M06 A3005 RMK AO2 T10411061
KCFS 162055Z AUTO 35003KT 10SM OVC016 M04/M06 A3005 RMK AO2 T10411061
KCFS 162035Z AUTO 00000KT 10SM OVC016 M04/M06 A3003 RMK AO2 T10411062
KCFS 162015Z AUTO 01004KT 10SM BKN016 OVC030 M04/M06 A3002 RMK AO2 T10401064
KCFS 161955Z AUTO 01004KT 10SM BKN018 OVC030 M04/M07 A3001 RMK AO2 T10381066
KCFS 161935Z AUTO 03004KT 10SM SCT016 OVC030 M04/M07 A3002 RMK AO2 T10381066
KCFS 161915Z AUTO 00000KT 10SM SCT016 OVC030 M04/M06 A3000 RMK AO2 T10411065
KCFS 161855Z AUTO 35003KT 10SM OVC032 M04/M06 A3001 RMK AO2 T10441065
KCFS 161835Z AUTO 36004KT 10SM OVC032 M04/M06 A3000 RMK AO2 T10441065
KCFS 161815Z AUTO 00000KT 10SM SCT032 OVC038 M04/M07 A3001 RMK AO2 T10421067
KCFS 161755Z AUTO 00000KT 10SM OVC040 M04/M07 A2999 RMK AO2 T10441068 11044 21061
KCFS 161735Z AUTO 00000KT 10SM OVC042 M05/M07 A2999 RMK AO2 T10461067
KCFS 161715Z AUTO 00000KT 10SM UP SCT010 SCT013 OVC044 M05/M07 A2999 RMK AO2 T10471066
KCFS 161655Z AUTO 00000KT 4SM -SN BKN010 OVC046 M05/M07 A3000 RMK AO2 T10501066
KCFS 161635Z AUTO 04003KT 1SM -SN OVC008 M05/M07 A3000 RMK AO2 T10511066
KCFS 161615Z AUTO 00000KT 1/2SM SN OVC008 M05/M07 A3000 RMK AO2 T10511067
KCFS 161555Z AUTO 00000KT 1 1/4SM -SN BKN019 BKN025 OVC032 M05/M07 A3000 RMK AO2 VIS 3/4V2 1/2 T10521070
KCFS 161535Z AUTO 00000KT 2 1/2SM -SN SCT033 OVC040 M05/M07 A2999 RMK AO2 VIS 1 1/4V3 T10541070
KCFS 161515Z AUTO 00000KT 2 1/2SM -SN OVC040 M05/M07 A2998 RMK AO2 T10551071
KCFS 161455Z AUTO 00000KT 2 1/2SM -SN OVC040 M06/M07 A2997 RMK AO2 VIS 2V4 T10571071
KCFS 161435Z AUTO 00000KT 1 3/4SM -SN BKN017 BKN024 OVC040 M05/M07 A2997 RMK AO2 T10521068
KCFS 161415Z AUTO 00000KT 1 1/2SM -SN OVC017 M05/M07 A2996 RMK AO2 T10551070
KCFS 161355Z AUTO 00000KT 2SM -SN SCT021 OVC043 M06/M07 A2995 RMK AO2 T10581069
KCFS 161335Z AUTO 00000KT 2SM -SN OVC045 M05/M07 A2994 RMK AO2 T10501068
KCFS 161315Z AUTO 00000KT 2SM -SN SCT009 BKN042 OVC049 M06/M07 A2993 RMK AO2 VIS 1 1/4V4 T10611071
KCFS 161255Z AUTO 00000KT 2SM -SN OVC009 M06/M07 A2992 RMK AO2 T10611070
KCFS 161235Z AUTO 00000KT 2SM -SN OVC009 M05/M07 A2992 RMK AO2 T10531068
KCFS 161215Z AUTO 00000KT 10SM SCT019 BKN040 OVC047 M06/M07 A2992 RMK AO2 T10591070
KCFS 161155Z AUTO 00000KT 3SM -SN OVC038 M05/M07 A2991 RMK AO2 T10531067 11048 21065
KCFS 161135Z AUTO 00000KT 3SM -SN OVC038 M05/M07 A2991 RMK AO2 T10511067
KCFS 161115Z AUTO 00000KT 1 3/4SM -SN BKN008 BKN018 OVC040 M05/M06 A2990 RMK AO2 T10501065
KCFS 161055Z AUTO 26003KT 1 3/4SM -SN OVC010 M05/M07 A2990 RMK AO2 T10551067
KCFS 161035Z AUTO 28003KT 1 3/4SM -SN OVC012 M05/M06 A2989 RMK AO2 T10481064
KCFS 161015Z AUTO 00000KT 2SM -SN SCT008 OVC014 M05/M07 A2988 RMK AO2 T10551066
KCFS 160955Z AUTO 25003KT 2SM -SN OVC012 M05/M07 A2988 RMK AO2 T10541069
KCFS 160935Z AUTO 23003KT 2 1/2SM -SN OVC012 M05/M07 A2987 RMK AO2 T10551066
KCFS 160915Z AUTO 24004KT 2SM -SN BKN010 OVC016 M05/M07 A2988 RMK AO2 VIS 1 1/2V2 1/2 T10551066
KCFS 160855Z AUTO 23004KT 4SM -SN SCT019 BKN025 OVC029 M05/M07 A2987 RMK AO2 T10551070
KCFS 160835Z AUTO 22004KT 5SM -SN OVC027 M06/M07 A2987 RMK AO2 T10561075
KCFS 160815Z AUTO 22004KT 10SM -SN OVC025 M05/M08 A2988 RMK AO2 T10551079
KCFS 160755Z AUTO 22003KT 10SM OVC025 M06/M08 A2988 RMK AO2 T10571081
KCFS 160735Z AUTO 21003KT 10SM OVC029 M06/M08 A2987 RMK AO2 T10591085
KCFS 160715Z AUTO 21003KT 10SM OVC029 M06/M08 A2987 RMK AO2 T10611084
KCFS 160655Z AUTO 21003KT 10SM OVC031 M06/M08 A2986 RMK AO2 T10611085
KCFS 160635Z AUTO 21003KT 10SM OVC033 M06/M08 A2986 RMK AO2 T10621085
KCFS 160615Z AUTO 00000KT 10SM OVC035 M06/M08 A2986 RMK AO2 T10611085
KCFS 160555Z AUTO 23003KT 10SM OVC035 M06/M08 A2986 RMK AO2 T10651085 11055 21070 410431152
KCFS 160535Z AUTO 22004KT 10SM BKN037 OVC049 M07/M09 A2986 RMK AO2 T10671088
KCFS 160515Z AUTO 21004KT 10SM SCT037 BKN043 OVC095 M07/M09 A2986 RMK AO2 T10691090
KCFS 160455Z AUTO 23003KT 10SM BKN045 OVC100 M07/M09 A2986 RMK AO2 T10681091
KCFS 160435Z AUTO 24004KT 10SM BKN045 OVC100 M07/M09 A2986 RMK AO2 T10661090
KCFS 160415Z AUTO 24003KT 10SM OVC100 M06/M09 A2986 RMK AO2 T10651089
KCFS 160355Z AUTO 24004KT 10SM OVC100 M06/M09 A2986 RMK AO2 T10611087
KCFS 160335Z AUTO 26006KT 10SM SCT038 OVC100 M06/M08 A2986 RMK AO2 T10591085
KCFS 160315Z AUTO 25006KT 10SM SCT016 SCT030 OVC038 M05/M08 A2987 RMK AO2 T10551080
KCFS 160255Z AUTO 26007KT 10SM -SN SCT018 OVC040 M05/M08 A2986 RMK AO2 T10551080
KCFS 160235Z AUTO 25008KT 10SM -SN OVC042 M05/M08 A2986 RMK AO2 T10551085
KCFS 160215Z AUTO 24009KT 10SM -SN OVC042 M05/M09 A2985 RMK AO2 T10551087
KCFS 160155Z AUTO 24009KT 10SM OVC044 M05/M09 A2984 RMK AO2 T10551092
KCFS 160135Z AUTO 25008KT 10SM OVC048 M05/M09 A2984 RMK AO2 T10551095
KCFS 160115Z AUTO 25008KT 10SM OVC048 M05/M10 A2983 RMK AO2 T10551097
KCFS 160055Z AUTO 24007G15KT 10SM OVC050 M05/M10 A2983 RMK AO2 T10551101
KCFS 160035Z AUTO 24011KT 10SM SCT050 M06/M11 A2982 RMK AO2 T10591108
KCFS 160015Z AUTO 25010G14KT 10SM CLR M06/M12 A2982 RMK AO2 T10631123
KCFS 152355Z AUTO 26013KT 10SM CLR M06/M12 A2980 RMK AO2 T10581125 11043 21060
KCFS 152335Z AUTO 25011G14KT 10SM CLR M06/M12 A2980 RMK AO2 T10591120
KCFS 152315Z AUTO 25010KT 10SM CLR M06/M11 A2980 RMK AO2 T10571114
KCFS 152255Z AUTO 25009G17KT 10SM SCT050 M05/M11 A2979 RMK AO2 T10531112
KCFS 152235Z AUTO 25010G17KT 10SM BKN050 M05/M11 A2978 RMK AO2 T10511113
KCFS 152215Z AUTO 25012G17KT 10SM OVC050 M05/M11 A2977 RMK AO2 T10501110
KCFS 152155Z AUTO 26011G14KT 10SM OVC050 M05/M11 A2977 RMK AO2 T10491107
KCFS 152135Z AUTO 26013G17KT 10SM OVC050 M05/M10 A2976 RMK AO2 T10501104
KCFS 152115Z AUTO 24009G14KT 10SM BKN050 M05/M09 A2975 RMK AO2 T10501095
KCFS 152055Z AUTO 25009KT 10SM SCT050 SCT060 M05/M09 A2975 RMK AO2 T10511094
KCFS 152035Z AUTO 25010G15KT 10SM SCT070 M05/M09 A2975 RMK AO2 T10501088
KCFS 152015Z AUTO 24011G15KT 10SM BKN070 M05/M08 A2974 RMK AO2 T10461080
KCFS 151955Z AUTO 25011G18KT 7SM -SN SCT020 BKN037 OVC070 M04/M07 A2973 RMK AO2 T10431073
KCFS 151935Z AUTO 25010G17KT 7SM -SN BKN021 BKN026 OVC039 M04/M07 A2973 RMK AO2 T10431071
KCFS 151915Z AUTO 25010KT 4SM -SN SCT018 BKN028 OVC045 M05/M07 A2973 RMK AO2 T10461070
KCFS 151855Z AUTO 24012G17KT 7SM SCT022 SCT045 OVC075 M04/M07 A2973 RMK AO2 T10451073
KCFS 151835Z AUTO 24013G18KT 7SM SCT025 SCT035 OVC075 M05/M07 A2972 RMK AO2 T10461073
KCFS 151815Z AUTO 23012G18KT 7SM SCT025 BKN060 OVC085 M05/M07 A2972 RMK AO2 T10481074
KCFS 151755Z AUTO 22013G17KT 7SM SCT012 BKN060 OVC085 M05/M07 A2973 RMK AO2 T10501074 11050 21080
KCFS 151735Z AUTO 22013G17KT 7SM -SN BKN015 OVC060 M05/M08 A2973 RMK AO2 T10531076
KCFS 151715Z AUTO 22013G18KT 4SM -SN OVC015 M05/M08 A2974 RMK AO2 T10531076
KCFS 151655Z AUTO 22012G16KT 2SM -SN SCT007 BKN012 OVC018 M05/M07 A2975 RMK AO2 T10551075
KCFS 151635Z AUTO 21009KT 3/4SM -SN OVC005 M06/M07 A2976 RMK AO2 T10581072
KCFS 151615Z AUTO 21011KT 3/4SM -SN OVC008 M06/M08 A2976 RMK AO2 T10601076
KCFS 151555Z AUTO 19008KT 1 1/2SM -SN OVC010 M06/M08 A2977 RMK AO2 T10611079
KCFS 151535Z AUTO 18009KT 2 1/2SM -SN BKN010 OVC015 M06/M08 A2977 RMK AO2 VIS 1 3/4V3 T10621081
KCFS 151515Z AUTO 18010KT 2SM -SN OVC010 M06/M08 A2978 RMK AO2 T10631081
KCFS 151455Z AUTO 19008KT 2SM -SN OVC008 M07/M08 A2979 RMK AO2 T10661081
KCFS 151435Z AUTO 18009KT 1 1/2SM -SN OVC008 M07/M08 A2980 RMK AO2 T10681083
KCFS 151415Z AUTO 18008KT 2 1/2SM -SN OVC012 M07/M08 A2981 RMK AO2 T10701085
KCFS 151355Z AUTO 18008KT 2SM -SN OVC012 M07/M09 A2982 RMK AO2 VIS 1 1/4V3 T10701087
KCFS 151335Z AUTO 18009KT 2 1/2SM -SN BKN012 OVC023 M07/M09 A2982 RMK AO2 T10701089
KCFS 151315Z AUTO 18007KT 5SM -SN SCT019 BKN025 OVC033 M07/M09 A2983 RMK AO2 T10711092
KCFS 151255Z AUTO 18007KT 7SM -SN BKN031 BKN037 OVC050 M07/M09 A2984 RMK AO2 T10731092
KCFS 151235Z AUTO 16005KT 10SM SCT035 OVC050 M08/M09 A2984 RMK AO2 T10761095